Time;durP1;ratioP1;P1;durP2;ratioP2;P2;SDS_P1;SDS_P2;PMS_P1;PMS_P2;Temp;Humidity;BMP_temperature;BMP_pressure;BME280_temperature;BME280_humidity;BME280_pressure;Samples;Min_cycle;Max_cycle;Signal;HPM_P1;HPM_P2
2021/04/22 00:00:50;;;;;;;6.83;5.20;;;;;;;;;;5102508;28;20468;-94
2021/04/22 00:03:17;;;;;;;7.70;5.27;;;;;;;;;;5103796;28;20603;-95
2021/04/22 00:05:43;;;;;;;6.27;5.67;;;;;;;;;;5112398;28;20446;-95
2021/04/22 00:08:11;;;;;;;8.40;6.60;;;;;;;;;;5111335;28;20469;-95
2021/04/22 00:10:38;;;;;;;5.57;4.97;;;;;;;;;;5102187;28;20467;-96
2021/04/22 00:13:04;;;;;;;5.37;4.87;;;;;;;;;;5102245;28;20525;-95
2021/04/22 00:15:31;;;;;;;7.23;5.50;;;;;;;;;;5101765;28;20448;-95
2021/04/22 00:17:57;;;;;;;8.60;6.17;;;;;;;;;;5102019;28;20520;-96
2021/04/22 00:20:24;;;;;;;7.43;5.73;;;;;;;;;;5100005;28;20457;-95
2021/04/22 00:22:50;;;;;;;5.50;4.90;;;;;;;;;;5101247;28;20478;-96
2021/04/22 00:25:17;;;;;;;6.33;5.47;;;;;;;;;;5101782;28;20510;-96
2021/04/22 00:27:43;;;;;;;7.80;5.70;;;;;;;;;;5102187;28;20482;-96
2021/04/22 00:30:11;;;;;;;7.40;5.90;;;;;;;;;;5101840;28;20967;-96
2021/04/22 00:32:37;;;;;;;7.20;5.50;;;;;;;;;;5103635;28;20444;-96
2021/04/22 00:35:03;;;;;;;5.53;4.93;;;;;;;;;;5105660;28;20481;-95
2021/04/22 00:37:29;;;;;;;5.10;4.60;;;;;;;;;;5104476;28;20519;-95
2021/04/22 00:39:55;;;;;;;6.57;5.03;;;;;;;;;;5102830;28;20460;-95
2021/04/22 00:42:22;;;;;;;8.40;6.33;;;;;;;;;;5105705;28;20495;-94
2021/04/22 00:44:48;;;;;;;9.77;8.07;;;;;;;;;;5106230;28;20448;-93
2021/04/22 00:47:15;;;;;;;10.33;7.57;;;;;;;;;;5106150;28;20452;-95
2021/04/22 00:49:41;;;;;;;8.50;7.07;;;;;;;;;;5104892;28;20464;-94
2021/04/22 00:52:08;;;;;;;11.40;8.30;;;;;;;;;;5105605;28;20452;-93
2021/04/22 00:54:34;;;;;;;10.27;6.73;;;;;;;;;;5105409;28;20458;-94
2021/04/22 00:57:00;;;;;;;9.93;8.00;;;;;;;;;;5105740;28;21039;-96
2021/04/22 00:59:27;;;;;;;15.60;8.48;;;;;;;;;;5103739;28;21003;-96
2021/04/22 01:01:53;;;;;;;12.60;9.07;;;;;;;;;;5102834;28;20228;-96
2021/04/22 01:04:19;;;;;;;10.60;7.90;;;;;;;;;;5095322;28;20448;-94
2021/04/22 01:06:46;;;;;;;13.90;8.27;;;;;;;;;;5104968;28;20451;-95
2021/04/22 01:09:14;;;;;;;11.33;7.83;;;;;;;;;;5104300;28;20955;-95
2021/04/22 01:11:40;;;;;;;12.32;7.53;;;;;;;;;;5103333;28;20455;-94
2021/04/22 01:14:06;;;;;;;12.48;7.75;;;;;;;;;;5103933;28;20217;-96
2021/04/22 01:16:34;;;;;;;10.07;6.90;;;;;;;;;;5104350;28;20206;-95
2021/04/22 01:19:00;;;;;;;8.97;6.90;;;;;;;;;;5085545;28;20460;-95
2021/04/22 01:21:27;;;;;;;12.63;7.90;;;;;;;;;;5104411;28;20440;-94
2021/04/22 01:23:53;;;;;;;10.60;7.30;;;;;;;;;;5104153;28;20483;-95
2021/04/22 01:26:21;;;;;;;8.27;6.30;;;;;;;;;;5103926;28;20479;-96
2021/04/22 01:28:47;;;;;;;13.20;7.70;;;;;;;;;;5098462;28;20210;-94
2021/04/22 01:31:13;;;;;;;10.93;8.20;;;;;;;;;;5105087;28;20447;-95
2021/04/22 01:33:39;;;;;;;10.50;7.63;;;;;;;;;;5105588;28;20440;-95
2021/04/22 01:36:05;;;;;;;9.37;7.13;;;;;;;;;;5104560;28;20477;-94
2021/04/22 01:38:33;;;;;;;10.05;7.65;;;;;;;;;;5103839;28;20551;-95
2021/04/22 01:40:59;;;;;;;8.55;6.45;;;;;;;;;;5104572;28;20697;-94
2021/04/22 01:43:26;;;;;;;8.40;5.77;;;;;;;;;;5104630;28;20234;-95
2021/04/22 01:45:52;;;;;;;8.53;5.90;;;;;;;;;;5104108;28;20441;-93
2021/04/22 01:48:18;;;;;;;6.22;5.63;;;;;;;;;;5102126;28;20466;-95
2021/04/22 01:50:44;;;;;;;8.68;6.38;;;;;;;;;;5102361;28;20218;-95
2021/04/22 01:53:11;;;;;;;8.87;6.40;;;;;;;;;;5102432;28;20210;-96
2021/04/22 01:55:40;;;;;;;9.10;5.90;;;;;;;;;;5102967;28;20452;-96
2021/04/22 01:58:07;;;;;;;8.98;6.22;;;;;;;;;;5102410;28;20452;-95
2021/04/22 02:00:35;;;;;;;9.52;7.20;;;;;;;;;;5103920;28;20651;-95
2021/04/22 02:03:01;;;;;;;6.85;5.55;;;;;;;;;;5104115;28;20252;-94
2021/04/22 02:05:27;;;;;;;6.90;5.40;;;;;;;;;;5103272;28;20209;-96
2021/04/22 02:07:53;;;;;;;10.32;6.40;;;;;;;;;;5102570;28;20201;-95
2021/04/22 02:10:19;;;;;;;8.85;6.90;;;;;;;;;;5104367;28;20214;-95
2021/04/22 02:12:47;;;;;;;9.07;6.93;;;;;;;;;;5095593;28;20213;-95
2021/04/22 02:15:16;;;;;;;8.27;6.30;;;;;;;;;;5104100;28;20201;-95
2021/04/22 02:17:43;;;;;;;7.20;6.07;;;;;;;;;;5102082;28;20217;-95
2021/04/22 02:20:11;;;;;;;7.53;6.05;;;;;;;;;;5103348;28;20496;-96
2021/04/22 02:22:37;;;;;;;10.80;7.15;;;;;;;;;;5103786;28;20228;-96
2021/04/22 02:25:04;;;;;;;9.20;6.70;;;;;;;;;;5103321;28;20205;-94
2021/04/22 02:27:31;;;;;;;8.25;7.07;;;;;;;;;;5102280;28;20236;-95
2021/04/22 02:29:58;;;;;;;10.15;7.28;;;;;;;;;;5103840;28;20209;-94
2021/04/22 02:32:24;;;;;;;11.10;7.40;;;;;;;;;;5103287;28;20563;-94
2021/04/22 02:34:50;;;;;;;10.25;7.30;;;;;;;;;;5103293;28;20661;-94
2021/04/22 02:37:16;;;;;;;11.00;7.70;;;;;;;;;;5075501;28;20212;-94
2021/04/22 02:39:42;;;;;;;9.80;8.10;;;;;;;;;;5103335;28;20208;-95
2021/04/22 02:42:08;;;;;;;9.00;6.00;;;;;;;;;;5103733;28;20942;-94
2021/04/22 02:44:34;;;;;;;10.98;7.35;;;;;;;;;;5103433;28;20456;-94
2021/04/22 02:47:01;;;;;;;8.07;5.90;;;;;;;;;;5100309;28;20202;-94
2021/04/22 02:49:27;;;;;;;10.43;7.95;;;;;;;;;;5103290;28;20461;-94
2021/04/22 02:51:53;;;;;;;14.57;8.50;;;;;;;;;;5091654;28;20207;-94
2021/04/22 02:54:19;;;;;;;8.40;7.20;;;;;;;;;;5100308;28;20436;-94
2021/04/22 02:56:45;;;;;;;10.77;7.78;;;;;;;;;;5100135;28;20430;-95
2021/04/22 02:59:11;;;;;;;9.57;6.70;;;;;;;;;;5113734;28;20188;-95
2021/04/22 03:01:37;;;;;;;9.23;7.80;;;;;;;;;;5108824;28;20199;-96
2021/04/22 03:04:05;;;;;;;11.98;9.27;;;;;;;;;;5102571;28;20282;-95
2021/04/22 03:06:31;;;;;;;10.55;8.65;;;;;;;;;;5101646;28;20210;-95
2021/04/22 03:08:57;;;;;;;11.98;8.32;;;;;;;;;;5101228;28;20212;-96
2021/04/22 03:11:23;;;;;;;8.68;7.30;;;;;;;;;;5101185;28;20216;-96
2021/04/22 03:13:49;;;;;;;9.63;7.27;;;;;;;;;;5100659;28;20209;-95
2021/04/22 03:16:15;;;;;;;12.47;8.50;;;;;;;;;;5102503;28;20516;-96
2021/04/22 03:18:41;;;;;;;10.00;7.70;;;;;;;;;;5103169;28;20912;-96
2021/04/22 03:21:08;;;;;;;9.73;7.90;;;;;;;;;;5103537;28;20203;-96
2021/04/22 03:23:34;;;;;;;8.10;7.10;;;;;;;;;;5102265;28;20525;-95
2021/04/22 03:26:00;;;;;;;11.00;7.27;;;;;;;;;;5101185;28;20232;-96
2021/04/22 03:28:26;;;;;;;10.33;7.63;;;;;;;;;;5101037;28;20454;-94
2021/04/22 03:30:52;;;;;;;14.27;8.07;;;;;;;;;;5099822;28;20448;-95
2021/04/22 03:33:18;;;;;;;11.93;8.63;;;;;;;;;;5099995;28;20454;-95
2021/04/22 03:35:44;;;;;;;13.00;9.00;;;;;;;;;;5100361;28;20289;-95
2021/04/22 03:38:11;;;;;;;12.13;8.35;;;;;;;;;;5100485;28;20238;-94
2021/04/22 03:40:37;;;;;;;10.38;8.88;;;;;;;;;;5101559;28;20205;-95
2021/04/22 03:43:03;;;;;;;12.20;8.97;;;;;;;;;;5101299;28;20227;-96
2021/04/22 03:45:29;;;;;;;12.00;8.70;;;;;;;;;;5102679;28;20795;-95
2021/04/22 03:47:55;;;;;;;10.00;7.75;;;;;;;;;;5102450;28;20458;-95
2021/04/22 03:50:21;;;;;;;12.10;8.93;;;;;;;;;;5102208;28;20691;-95
2021/04/22 03:52:48;;;;;;;12.52;9.43;;;;;;;;;;5101228;28;20209;-95
2021/04/22 03:55:16;;;;;;;14.43;10.30;;;;;;;;;;5101859;28;20200;-95
2021/04/22 03:57:42;;;;;;;10.05;8.23;;;;;;;;;;5102624;28;20199;-95
2021/04/22 04:00:09;;;;;;;11.25;8.70;;;;;;;;;;5102261;28;20202;-96
2021/04/22 04:02:35;;;;;;;11.43;8.45;;;;;;;;;;5101642;28;20223;-94
2021/04/22 04:05:01;;;;;;;15.75;9.80;;;;;;;;;;5102399;28;20204;-96
2021/04/22 04:07:27;;;;;;;11.93;9.32;;;;;;;;;;5103198;28;20199;-95
2021/04/22 04:09:53;;;;;;;10.60;8.40;;;;;;;;;;5106045;28;20204;-96
2021/04/22 04:12:20;;;;;;;11.15;9.05;;;;;;;;;;5097773;28;20206;-96
2021/04/22 04:14:46;;;;;;;12.30;9.60;;;;;;;;;;5105577;28;20211;-96
2021/04/22 04:17:12;;;;;;;10.65;9.13;;;;;;;;;;5106866;28;20209;-96
2021/04/22 04:19:38;;;;;;;15.45;11.43;;;;;;;;;;5106927;28;20211;-95
2021/04/22 04:22:04;;;;;;;12.63;9.90;;;;;;;;;;5105185;28;20241;-95
2021/04/22 04:24:30;;;;;;;15.48;10.52;;;;;;;;;;5105757;28;20485;-95
2021/04/22 04:26:56;;;;;;;12.07;10.27;;;;;;;;;;5106279;28;20635;-95
2021/04/22 04:29:23;;;;;;;12.20;9.43;;;;;;;;;;5105905;28;20198;-96
2021/04/22 04:31:49;;;;;;;11.73;9.40;;;;;;;;;;5103913;28;20202;-96
2021/04/22 04:34:15;;;;;;;13.05;9.90;;;;;;;;;;5105059;28;20444;-96
2021/04/22 04:36:45;;;;;;;11.57;9.53;;;;;;;;;;5106047;28;20201;-96
2021/04/22 04:39:11;;;;;;;16.63;11.23;;;;;;;;;;5105109;28;20461;-96
2021/04/22 04:41:37;;;;;;;14.65;10.75;;;;;;;;;;5102181;28;20730;-96
2021/04/22 04:44:03;;;;;;;14.83;10.80;;;;;;;;;;5102970;28;20224;-95
2021/04/22 04:46:31;;;;;;;16.13;10.98;;;;;;;;;;5104362;28;20458;-96
2021/04/22 04:48:57;;;;;;;20.67;11.83;;;;;;;;;;5104442;28;20206;-96
2021/04/22 04:51:23;;;;;;;19.08;11.52;;;;;;;;;;5099017;28;20535;-96
2021/04/22 04:53:51;;;;;;;13.00;11.15;;;;;;;;;;5106287;28;20204;-96
2021/04/22 04:56:18;;;;;;;14.77;10.80;;;;;;;;;;5106027;28;20222;-96
2021/04/22 04:58:44;;;;;;;16.43;11.83;;;;;;;;;;5105740;28;20201;-96
2021/04/22 05:01:10;;;;;;;21.27;14.33;;;;;;;;;;5105956;28;20456;-96
2021/04/22 05:03:37;;;;;;;22.20;16.20;;;;;;;;;;5106128;28;20484;-96
2021/04/22 05:06:03;;;;;;;23.17;15.90;;;;;;;;;;5106919;28;20470;-96
2021/04/22 05:08:30;;;;;;;24.47;16.00;;;;;;;;;;5114809;28;20440;-96
2021/04/22 05:13:45;;;;;;;30.60;22.50;;;;;;;;;;5147765;22;20182;-96
2021/04/22 05:16:12;;;;;;;38.80;26.87;;;;;;;;;;5009015;28;20468;-96
2021/04/22 05:18:39;;;;;;;37.53;23.23;;;;;;;;;;5014828;28;20464;-96
2021/04/22 05:21:05;;;;;;;33.50;24.20;;;;;;;;;;4999948;28;20476;-96
2021/04/22 05:23:48;;;;;;;48.80;35.23;;;;;;;;;;5017692;28;20487;-96
2021/04/22 05:26:14;;;;;;;53.00;44.33;;;;;;;;;;5052184;23;20502;-96
2021/04/22 05:28:40;;;;;;;62.47;47.40;;;;;;;;;;5052237;28;20448;-96
2021/04/22 05:31:07;;;;;;;60.53;46.23;;;;;;;;;;5046581;28;20501;-95
2021/04/22 05:36:02;;;;;;;68.00;51.43;;;;;;;;;;5184973;22;20493;-96
2021/04/22 05:38:29;;;;;;;61.93;48.10;;;;;;;;;;5089897;28;20543;-96
2021/04/22 05:40:55;;;;;;;51.90;38.80;;;;;;;;;;5081133;28;20449;-96
2021/04/22 05:43:21;;;;;;;39.50;32.47;;;;;;;;;;5112732;23;20564;-96
2021/04/22 05:45:47;;;;;;;47.83;32.73;;;;;;;;;;5028369;28;20463;-96
2021/04/22 05:48:13;;;;;;;48.43;34.70;;;;;;;;;;5059730;28;20472;-96
2021/04/22 05:50:39;;;;;;;39.50;31.87;;;;;;;;;;5052642;28;20443;-96
2021/04/22 05:53:27;;;;;;;32.50;27.30;;;;;;;;;;5055781;28;20437;-96
2021/04/22 05:56:01;;;;;;;36.47;29.37;;;;;;;;;;5058557;28;20527;-96
2021/04/22 05:58:28;;;;;;;29.30;23.93;;;;;;;;;;5054801;28;20439;-96
2021/04/22 06:00:56;;;;;;;28.00;21.70;;;;;;;;;;5050127;28;20450;-96
2021/04/22 06:09:38;;;;;;;25.90;20.30;;;;;;;;;;5231233;23;20497;-96
2021/04/22 06:12:07;;;;;;;24.50;20.03;;;;;;;;;;5051392;28;20454;-96
2021/04/22 06:14:35;;;;;;;21.30;17.67;;;;;;;;;;5043598;28;20462;-96
2021/04/22 06:17:01;;;;;;;18.67;15.87;;;;;;;;;;5048065;28;20443;-96
2021/04/22 06:19:28;;;;;;;21.77;15.80;;;;;;;;;;5051351;28;20874;-96
2021/04/22 06:21:54;;;;;;;19.63;16.27;;;;;;;;;;5045353;28;20489;-96
2021/04/22 06:24:21;;;;;;;20.03;16.60;;;;;;;;;;5024114;28;20500;-96
2021/04/22 06:26:48;;;;;;;20.97;16.63;;;;;;;;;;5027197;28;20451;-96
2021/04/22 06:29:35;;;;;;;21.10;17.60;;;;;;;;;;5048802;28;20435;-96
2021/04/22 06:32:01;;;;;;;19.30;17.07;;;;;;;;;;5050127;28;20466;-96
2021/04/22 06:34:29;;;;;;;18.90;16.90;;;;;;;;;;5047722;28;20539;-96
2021/04/22 06:36:59;;;;;;;18.60;16.50;;;;;;;;;;5053897;28;20431;-96
2021/04/22 06:39:40;;;;;;;16.00;14.40;;;;;;;;;;5056121;28;20439;-96
2021/04/22 06:42:08;;;;;;;19.23;14.80;;;;;;;;;;5034709;28;20874;-96
2021/04/22 06:47:19;;;;;;;15.77;13.30;;;;;;;;;;5048478;28;20443;-96
2021/04/22 06:49:49;;;;;;;15.37;13.50;;;;;;;;;;5052754;28;20442;-96
2021/04/22 06:52:16;;;;;;;14.63;13.07;;;;;;;;;;5047736;28;20499;-96
2021/04/22 06:54:43;;;;;;;15.57;13.97;;;;;;;;;;5043536;28;20496;-96
2021/04/22 06:57:09;;;;;;;22.80;14.00;;;;;;;;;;5049710;28;20447;-96
2021/04/22 06:59:38;;;;;;;15.60;13.30;;;;;;;;;;5047612;28;20457;-95
2021/04/22 07:02:04;;;;;;;15.53;13.67;;;;;;;;;;5044047;28;20451;-96
2021/04/22 07:04:39;;;;;;;13.10;11.60;;;;;;;;;;5051846;28;20536;-96
2021/04/22 07:07:09;;;;;;;10.93;9.80;;;;;;;;;;5047571;28;20543;-95
2021/04/22 07:09:35;;;;;;;19.27;17.30;;;;;;;;;;5044968;28;21115;-92
2021/04/22 07:12:02;;;;;;;22.33;16.90;;;;;;;;;;5045393;28;20468;-96
2021/04/22 07:14:28;;;;;;;24.40;20.90;;;;;;;;;;5096332;23;20488;-96
2021/04/22 07:16:55;;;;;;;24.90;22.37;;;;;;;;;;5091794;28;20444;-96
2021/04/22 07:19:21;;;;;;;30.90;23.70;;;;;;;;;;5086104;28;20443;-96
2021/04/22 07:21:48;;;;;;;27.50;23.23;;;;;;;;;;5082396;28;21018;-96
2021/04/22 07:24:15;;;;;;;26.70;19.60;;;;;;;;;;5091466;23;20446;-96
2021/04/22 07:26:41;;;;;;;24.30;21.70;;;;;;;;;;5038796;28;20450;-96
2021/04/22 07:29:07;;;;;;;21.30;19.10;;;;;;;;;;5034061;28;20439;-95
2021/04/22 07:31:33;;;;;;;20.63;16.90;;;;;;;;;;5083467;23;20523;-96
2021/04/22 07:34:01;;;;;;;20.43;16.80;;;;;;;;;;5087102;28;20475;-95
2021/04/22 07:36:27;;;;;;;20.43;17.27;;;;;;;;;;5088250;28;20475;-96
2021/04/22 07:38:53;;;;;;;17.23;15.40;;;;;;;;;;5088815;28;20491;-93
2021/04/22 07:41:19;;;;;;;15.97;14.53;;;;;;;;;;5082170;28;20449;-95
2021/04/22 07:43:45;;;;;;;18.10;14.90;;;;;;;;;;5085495;28;20477;-96
2021/04/22 07:46:11;;;;;;;18.50;14.47;;;;;;;;;;5084462;28;20458;-96
2021/04/22 07:48:37;;;;;;;22.13;15.67;;;;;;;;;;5088620;28;20532;-96
2021/04/22 07:51:05;;;;;;;15.13;13.53;;;;;;;;;;5092199;28;20444;-96
2021/04/22 07:53:33;;;;;;;15.17;13.43;;;;;;;;;;5084652;28;20454;-94
2021/04/22 07:58:34;;;;;;;15.77;14.07;;;;;;;;;;5665699;23;20521;-96
2021/04/22 08:01:01;;;;;;;18.47;12.20;;;;;;;;;;5096538;28;20451;-94
2021/04/22 08:03:29;;;;;;;14.17;12.70;;;;;;;;;;5441530;22;20854;-96
2021/04/22 08:05:56;;;;;;;15.07;11.90;;;;;;;;;;5052602;28;20459;-96
2021/04/22 08:08:26;;;;;;;17.20;11.87;;;;;;;;;;5059204;28;20437;-96
2021/04/22 08:10:56;;;;;;;12.30;10.03;;;;;;;;;;5300581;22;20788;-96
2021/04/22 08:13:24;;;;;;;11.13;8.43;;;;;;;;;;5064713;28;20523;-95
2021/04/22 08:15:53;;;;;;;7.83;7.00;;;;;;;;;;5070467;28;20458;-96
2021/04/22 08:18:20;;;;;;;7.00;6.40;;;;;;;;;;5075381;28;20426;-95
2021/04/22 08:20:46;;;;;;;6.30;5.70;;;;;;;;;;5085360;23;20485;-96
2021/04/22 08:23:27;;;;;;;5.00;4.60;;;;;;;;;;5067941;28;20549;-96
2021/04/22 08:26:05;;;;;;;6.07;4.50;;;;;;;;;;5070039;28;20453;-96
2021/04/22 08:28:32;;;;;;;4.77;4.33;;;;;;;;;;5056037;23;20519;-96
2021/04/22 08:30:59;;;;;;;5.37;4.20;;;;;;;;;;5080496;22;20505;-95
2021/04/22 08:33:27;;;;;;;3.90;3.60;;;;;;;;;;5056741;28;20458;-96
2021/04/22 08:35:54;;;;;;;4.00;3.70;;;;;;;;;;5067917;28;20450;-95
2021/04/22 08:38:30;;;;;;;4.40;3.40;;;;;;;;;;5052402;28;20459;-96
2021/04/22 08:40:57;;;;;;;3.97;3.67;;;;;;;;;;5051308;28;20442;-92
2021/04/22 08:43:23;;;;;;;3.20;2.90;;;;;;;;;;5044225;28;20486;-92
2021/04/22 08:45:53;;;;;;;4.20;3.80;;;;;;;;;;5048091;28;20461;-96
2021/04/22 08:48:19;;;;;;;5.63;3.23;;;;;;;;;;5045901;28;20473;-95
2021/04/22 08:50:47;;;;;;;3.30;2.97;;;;;;;;;;5056798;23;20443;-95
2021/04/22 08:53:16;;;;;;;5.17;3.20;;;;;;;;;;5083315;28;20449;-96
2021/04/22 08:55:42;;;;;;;3.33;3.03;;;;;;;;;;5088405;28;20443;-94
2021/04/22 08:58:18;;;;;;;4.23;3.30;;;;;;;;;;5089888;28;20473;-96
2021/04/22 09:00:45;;;;;;;2.87;2.67;;;;;;;;;;5091830;28;20534;-96
2021/04/22 09:03:12;;;;;;;3.20;3.00;;;;;;;;;;5086976;28;20490;-96
2021/04/22 09:05:38;;;;;;;4.83;3.10;;;;;;;;;;5064214;28;20483;-93
2021/04/22 09:08:06;;;;;;;3.03;2.73;;;;;;;;;;5084810;28;20477;-96
2021/04/22 09:10:32;;;;;;;2.93;2.73;;;;;;;;;;5083337;28;20460;-93
2021/04/22 09:13:02;;;;;;;3.27;3.07;;;;;;;;;;5085277;28;20457;-96
2021/04/22 09:18:17;;;;;;;3.00;2.80;;;;;;;;;;5087170;22;20525;-95
2021/04/22 09:20:49;;;;;;;3.20;3.00;;;;;;;;;;5018044;28;20462;-96
2021/04/22 09:23:18;;;;;;;3.10;2.80;;;;;;;;;;5023081;28;20487;-94
2021/04/22 09:25:47;;;;;;;2.90;2.70;;;;;;;;;;5002532;28;20462;-96
2021/04/22 09:28:13;;;;;;;2.73;2.53;;;;;;;;;;5019692;28;20452;-94
2021/04/22 09:30:46;;;;;;;3.10;2.80;;;;;;;;;;5025731;28;20549;-95
2021/04/22 09:33:21;;;;;;;3.60;2.80;;;;;;;;;;5003058;28;20541;-95
2021/04/22 09:35:47;;;;;;;2.73;2.53;;;;;;;;;;5021178;28;20438;-95
2021/04/22 09:40:44;;;;;;;3.60;3.10;;;;;;;;;;5054765;22;20514;-91
2021/04/22 09:43:13;;;;;;;3.07;2.77;;;;;;;;;;5046154;28;20478;-94
2021/04/22 09:45:47;;;;;;;2.83;2.67;;;;;;;;;;5045851;28;20491;-93
2021/04/22 09:48:17;;;;;;;2.80;2.60;;;;;;;;;;5046887;28;20479;-96
2021/04/22 09:50:44;;;;;;;2.80;2.50;;;;;;;;;;5047349;28;21727;-93
2021/04/22 09:53:12;;;;;;;3.07;2.87;;;;;;;;;;5045023;28;20503;-95
2021/04/22 09:55:38;;;;;;;2.73;2.53;;;;;;;;;;5043164;28;20457;-93
2021/04/22 09:58:04;;;;;;;3.00;2.80;;;;;;;;;;5053025;23;20437;-95
2021/04/22 10:00:32;;;;;;;2.87;2.67;;;;;;;;;;5050945;28;20448;-96
2021/04/22 10:03:01;;;;;;;2.63;2.43;;;;;;;;;;5050049;28;20504;-96
2021/04/22 10:05:38;;;;;;;2.80;2.60;;;;;;;;;;5050478;28;20509;-95
2021/04/22 10:08:19;;;;;;;3.07;2.40;;;;;;;;;;5049205;28;20451;-96
2021/04/22 10:10:58;;;;;;;3.00;2.70;;;;;;;;;;5044502;28;20457;-96
2021/04/22 10:13:24;;;;;;;3.10;2.90;;;;;;;;;;5033724;28;20987;-94
2021/04/22 10:15:53;;;;;;;2.33;2.23;;;;;;;;;;5035652;28;20449;-96
2021/04/22 10:18:22;;;;;;;2.80;2.60;;;;;;;;;;5050316;28;20510;-96
2021/04/22 10:20:56;;;;;;;2.97;2.53;;;;;;;;;;5031071;28;20497;-95
2021/04/22 10:23:34;;;;;;;2.50;2.30;;;;;;;;;;5046408;28;20485;-96
2021/04/22 10:26:06;;;;;;;3.83;2.77;;;;;;;;;;5033386;28;20488;-96
2021/04/22 10:28:42;;;;;;;2.83;2.63;;;;;;;;;;5050040;28;20470;-96
2021/04/22 10:31:10;;;;;;;4.07;2.70;;;;;;;;;;5048957;28;20448;-96
2021/04/22 10:33:37;;;;;;;2.53;2.33;;;;;;;;;;5050283;28;20953;-96
2021/04/22 10:36:08;;;;;;;3.30;2.90;;;;;;;;;;5049876;28;20447;-94
2021/04/22 10:38:35;;;;;;;2.60;2.40;;;;;;;;;;5045427;28;20461;-95
2021/04/22 10:41:03;;;;;;;2.83;2.63;;;;;;;;;;5033738;28;20472;-96
2021/04/22 10:43:30;;;;;;;2.87;2.67;;;;;;;;;;5047781;28;20480;-96
2021/04/22 10:45:57;;;;;;;2.53;2.40;;;;;;;;;;5030346;28;20431;-95
2021/04/22 10:48:23;;;;;;;2.60;2.40;;;;;;;;;;5039385;28;20459;-96
2021/04/22 10:50:50;;;;;;;3.10;2.90;;;;;;;;;;5045965;28;20453;-95
2021/04/22 10:53:19;;;;;;;2.57;2.37;;;;;;;;;;5093055;22;20494;-95
2021/04/22 10:58:29;;;;;;;2.70;2.50;;;;;;;;;;5137284;22;20475;-96
2021/04/22 11:00:57;;;;;;;4.80;3.13;;;;;;;;;;5025692;28;20428;-96
2021/04/22 11:03:34;;;;;;;3.10;2.80;;;;;;;;;;5005503;28;20535;-95
2021/04/22 11:06:05;;;;;;;2.80;2.50;;;;;;;;;;5018458;28;20486;-96
2021/04/22 11:08:44;;;;;;;2.80;2.60;;;;;;;;;;5130566;23;20488;-95
2021/04/22 11:11:39;;;;;;;2.70;2.50;;;;;;;;;;5032179;28;20412;-96
2021/04/22 11:16:51;;;;;;;2.83;2.57;;;;;;;;;;5026860;28;21315;-96
2021/04/22 11:19:42;;;;;;;2.83;2.63;;;;;;;;;;5125723;22;21715;-96
2021/04/22 11:22:13;;;;;;;3.13;2.67;;;;;;;;;;5082371;22;20502;-96
2021/04/22 11:24:55;;;;;;;4.70;3.20;;;;;;;;;;5076306;28;20464;-96
2021/04/22 11:27:22;;;;;;;3.70;2.80;;;;;;;;;;5161486;23;20493;-94
2021/04/22 11:30:03;;;;;;;3.53;3.23;;;;;;;;;;5093636;28;20453;-96
2021/04/22 11:32:30;;;;;;;3.10;2.53;;;;;;;;;;5093335;28;20456;-96
2021/04/22 11:34:58;;;;;;;3.63;2.90;;;;;;;;;;5139998;22;20530;-94
2021/04/22 11:37:25;;;;;;;3.03;2.83;;;;;;;;;;5039521;28;20448;-95
2021/04/22 11:40:09;;;;;;;3.33;2.90;;;;;;;;;;5031379;28;20459;-95
2021/04/22 11:42:42;;;;;;;3.70;2.90;;;;;;;;;;5012103;28;20456;-95
2021/04/22 11:45:11;;;;;;;3.27;3.07;;;;;;;;;;5008763;28;20488;-96
2021/04/22 11:47:51;;;;;;;2.80;2.60;;;;;;;;;;5030762;28;20455;-96
2021/04/22 11:50:25;;;;;;;3.07;2.87;;;;;;;;;;5196103;22;20496;-96
2021/04/22 11:55:48;;;;;;;2.70;2.50;;;;;;;;;;5041862;28;20489;-94
2021/04/22 11:58:15;;;;;;;2.77;2.57;;;;;;;;;;5048102;28;20454;-95
2021/04/22 12:00:42;;;;;;;4.73;2.90;;;;;;;;;;5051004;28;20443;-95
2021/04/22 12:03:09;;;;;;;2.40;2.30;;;;;;;;;;5047852;28;20467;-95
2021/04/22 12:05:38;;;;;;;2.70;2.50;;;;;;;;;;5047860;28;20442;-95
2021/04/22 12:08:05;;;;;;;3.83;2.20;;;;;;;;;;5049936;28;20450;-95
2021/04/22 12:10:32;;;;;;;3.03;2.83;;;;;;;;;;5052401;28;20508;-96
2021/04/22 12:13:10;;;;;;;2.93;2.60;;;;;;;;;;5054484;28;20464;-95
2021/04/22 12:15:37;;;;;;;3.10;2.90;;;;;;;;;;5046644;28;20455;-95
2021/04/22 12:18:06;;;;;;;3.03;2.83;;;;;;;;;;5048289;28;20554;-96
2021/04/22 12:20:32;;;;;;;3.20;2.90;;;;;;;;;;5046861;28;20439;-95
2021/04/22 12:22:58;;;;;;;2.80;2.60;;;;;;;;;;5031567;28;20462;-96
2021/04/22 12:25:29;;;;;;;2.83;2.63;;;;;;;;;;5047986;28;20427;-92
2021/04/22 12:27:59;;;;;;;2.70;2.50;;;;;;;;;;5070640;22;20930;-96
2021/04/22 12:30:30;;;;;;;3.40;3.20;;;;;;;;;;5053283;22;20492;-96
2021/04/22 12:33:17;;;;;;;2.50;2.33;;;;;;;;;;5033787;28;20443;-96
2021/04/22 12:35:45;;;;;;;2.40;2.20;;;;;;;;;;5051856;28;20447;-95
2021/04/22 12:38:16;;;;;;;2.57;2.37;;;;;;;;;;5051094;28;20465;-96
2021/04/22 12:40:43;;;;;;;3.20;3.00;;;;;;;;;;5052993;28;20462;-96
2021/04/22 12:43:09;;;;;;;3.10;2.90;;;;;;;;;;5050144;28;20455;-95
2021/04/22 12:45:43;;;;;;;2.60;2.50;;;;;;;;;;5051603;28;20985;-95
2021/04/22 12:48:09;;;;;;;2.70;2.50;;;;;;;;;;5051358;28;20458;-92
2021/04/22 12:50:39;;;;;;;3.13;2.63;;;;;;;;;;5051550;28;20474;-95
2021/04/22 12:53:07;;;;;;;2.83;2.63;;;;;;;;;;5049720;28;20465;-96
2021/04/22 12:55:34;;;;;;;3.33;2.40;;;;;;;;;;5049765;28;20446;-95
2021/04/22 12:58:02;;;;;;;3.23;2.93;;;;;;;;;;5054784;28;20446;-95
2021/04/22 13:00:32;;;;;;;3.00;2.70;;;;;;;;;;5054095;28;20450;-96
2021/04/22 13:03:08;;;;;;;2.90;2.60;;;;;;;;;;5052018;28;20450;-93
2021/04/22 13:05:34;;;;;;;2.67;2.50;;;;;;;;;;5048945;28;20446;-95
2021/04/22 13:08:01;;;;;;;3.00;2.43;;;;;;;;;;5046822;28;20545;-96
2021/04/22 13:10:29;;;;;;;3.40;2.33;;;;;;;;;;5051441;28;20522;-96
2021/04/22 13:12:55;;;;;;;8.13;2.50;;;;;;;;;;5034400;28;21160;-96
2021/04/22 13:15:22;;;;;;;2.70;2.50;;;;;;;;;;5052976;28;20458;-96
2021/04/22 13:17:48;;;;;;;2.87;2.67;;;;;;;;;;5049066;28;20455;-95
2021/04/22 13:20:19;;;;;;;2.93;2.40;;;;;;;;;;5049972;28;20459;-96
2021/04/22 13:22:50;;;;;;;3.80;2.77;;;;;;;;;;5047584;28;20485;-94
2021/04/22 13:25:30;;;;;;;2.83;2.63;;;;;;;;;;5049921;28;20478;-95
2021/04/22 13:28:12;;;;;;;2.40;2.30;;;;;;;;;;5050508;28;20978;-96
2021/04/22 13:30:42;;;;;;;2.60;2.40;;;;;;;;;;5051145;28;20521;-96
2021/04/22 13:33:09;;;;;;;2.43;2.30;;;;;;;;;;5051158;28;20438;-94
2021/04/22 13:35:43;;;;;;;2.63;2.43;;;;;;;;;;5050511;28;20450;-96
2021/04/22 13:38:13;;;;;;;2.67;2.47;;;;;;;;;;5153386;22;21635;-94
2021/04/22 13:40:40;;;;;;;2.80;2.60;;;;;;;;;;5175829;22;20491;-94
2021/04/22 13:43:07;;;;;;;2.40;2.20;;;;;;;;;;5111494;28;20427;-96
2021/04/22 13:45:35;;;;;;;2.40;2.20;;;;;;;;;;5113891;28;20466;-96
2021/04/22 13:48:12;;;;;;;3.00;2.53;;;;;;;;;;5112738;28;20455;-96
2021/04/22 13:50:39;;;;;;;2.80;2.60;;;;;;;;;;5113093;28;20459;-95
2021/04/22 13:53:15;;;;;;;2.57;2.37;;;;;;;;;;5112943;28;20439;-96
2021/04/22 13:55:47;;;;;;;2.70;2.50;;;;;;;;;;5106992;22;20511;-96
2021/04/22 13:58:15;;;;;;;2.57;2.37;;;;;;;;;;5094547;28;20459;-96
2021/04/22 14:00:42;;;;;;;2.63;2.43;;;;;;;;;;5092337;28;20456;-96
2021/04/22 14:03:09;;;;;;;2.50;2.30;;;;;;;;;;5090328;28;20451;-96
2021/04/22 14:05:39;;;;;;;2.27;2.17;;;;;;;;;;5091413;28;20451;-95
2021/04/22 14:08:11;;;;;;;2.53;2.37;;;;;;;;;;5091495;28;20444;-93
2021/04/22 14:10:48;;;;;;;3.00;2.40;;;;;;;;;;5093241;28;20453;-96
2021/04/22 14:13:17;;;;;;;2.80;2.60;;;;;;;;;;5094329;28;20449;-95
2021/04/22 14:15:57;;;;;;;3.60;3.30;;;;;;;;;;5093756;28;20463;-96
2021/04/22 14:18:41;;;;;;;2.83;2.63;;;;;;;;;;5187575;22;20496;-93
2021/04/22 14:21:12;;;;;;;2.70;2.50;;;;;;;;;;5103651;28;20448;-96
2021/04/22 14:23:55;;;;;;;2.50;2.40;;;;;;;;;;5110249;28;20551;-96
2021/04/22 14:26:24;;;;;;;3.70;2.70;;;;;;;;;;5082272;23;20500;-96
2021/04/22 14:28:50;;;;;;;2.40;2.30;;;;;;;;;;5065472;28;20469;-96
2021/04/22 14:31:28;;;;;;;4.17;2.37;;;;;;;;;;5058039;28;20454;-94
2021/04/22 14:33:55;;;;;;;2.90;2.20;;;;;;;;;;5070174;28;20449;-96
2021/04/22 14:36:21;;;;;;;3.40;3.13;;;;;;;;;;5052866;28;20433;-96
2021/04/22 14:38:48;;;;;;;3.00;2.80;;;;;;;;;;5069977;28;21350;-94
2021/04/22 14:41:14;;;;;;;2.70;2.50;;;;;;;;;;5069509;28;20458;-96
2021/04/22 14:43:43;;;;;;;2.90;2.70;;;;;;;;;;5068638;28;20498;-95
2021/04/22 14:46:09;;;;;;;3.33;3.00;;;;;;;;;;5068780;28;20447;-94
2021/04/22 14:48:37;;;;;;;3.70;3.00;;;;;;;;;;5069269;22;20498;-95
2021/04/22 14:51:04;;;;;;;2.97;2.60;;;;;;;;;;5051202;28;20437;-95
2021/04/22 14:53:31;;;;;;;3.50;2.77;;;;;;;;;;5067484;22;20506;-93
2021/04/22 14:56:02;;;;;;;2.80;2.60;;;;;;;;;;5064316;28;20493;-95
2021/04/22 14:58:29;;;;;;;3.50;2.60;;;;;;;;;;5060843;28;20492;-94
2021/04/22 15:00:59;;;;;;;3.00;2.67;;;;;;;;;;5058737;23;20484;-96
2021/04/22 15:03:27;;;;;;;5.20;3.33;;;;;;;;;;5048513;28;20470;-93
2021/04/22 15:05:55;;;;;;;2.90;2.70;;;;;;;;;;5050952;28;20463;-96
2021/04/22 15:08:27;;;;;;;2.77;2.57;;;;;;;;;;5034899;23;20509;-96
2021/04/22 15:10:53;;;;;;;2.70;2.53;;;;;;;;;;5011090;28;20445;-95
2021/04/22 15:13:20;;;;;;;2.67;2.47;;;;;;;;;;5013518;28;20456;-95